createdAt,value
2022-12-25T00:01:42.280Z,72.70
2022-12-25T00:04:09.151Z,72.50
2022-12-25T00:06:35.992Z,72.30
2022-12-25T00:09:02.751Z,72.40
2022-12-25T00:11:29.479Z,71.70
2022-12-25T00:13:56.467Z,73.00
2022-12-25T00:16:24.355Z,73.50
2022-12-25T00:18:51.872Z,76.40
2022-12-25T00:21:19.913Z,76.20
2022-12-25T00:23:46.983Z,77.30
2022-12-25T00:26:17.739Z,75.30
2022-12-25T00:28:44.722Z,75.20
2022-12-25T00:31:13.583Z,78.90
2022-12-25T00:33:41.330Z,78.50
2022-12-25T00:36:08.358Z,76.20
2022-12-25T00:38:35.808Z,74.50
2022-12-25T00:41:06.274Z,75.50
2022-12-25T00:43:33.073Z,71.00
2022-12-25T00:46:01.802Z,71.60
2022-12-25T00:48:29.321Z,71.10
2022-12-25T00:50:56.685Z,72.40
2022-12-25T00:53:24.099Z,73.40
2022-12-25T00:55:54.810Z,74.00
2022-12-25T00:58:22.103Z,74.00
2022-12-25T01:00:49.348Z,74.20
2022-12-25T01:03:16.396Z,74.40
2022-12-25T01:05:43.688Z,72.70
2022-12-25T01:08:10.704Z,72.80
2022-12-25T01:10:37.449Z,72.80
2022-12-25T01:13:04.207Z,74.50
2022-12-25T01:15:30.959Z,75.70
2022-12-25T01:17:57.664Z,76.10
2022-12-25T01:20:24.432Z,77.70
2022-12-25T01:22:51.159Z,75.80
2022-12-25T01:25:17.856Z,77.20
2022-12-25T04:12:02.552Z,68.10
2022-12-25T04:14:48.268Z,69.30
2022-12-25T04:17:33.539Z,69.40
2022-12-25T04:20:18.722Z,69.40
2022-12-25T04:23:03.926Z,69.20
2022-12-25T04:25:49.059Z,69.30
2022-12-25T04:28:34.543Z,69.30
2022-12-25T04:31:20.353Z,69.20
2022-12-25T04:34:05.937Z,69.20
2022-12-25T04:36:32.738Z,69.40
2022-12-25T04:38:59.456Z,69.60
2022-12-25T04:41:26.272Z,69.50
2022-12-25T04:43:53.034Z,69.50
2022-12-25T04:46:19.851Z,69.60
2022-12-25T04:48:46.612Z,69.70
2022-12-25T04:51:20.660Z,69.90
2022-12-25T04:53:48.301Z,70.10
2022-12-25T04:56:15.411Z,69.90
2022-12-25T04:58:42.688Z,69.90
2022-12-25T05:01:09.449Z,69.90
2022-12-25T05:03:36.557Z,69.50
2022-12-25T05:06:03.819Z,69.70
2022-12-25T05:08:31.713Z,69.60
2022-12-25T05:10:58.596Z,69.60
2022-12-25T05:13:25.465Z,69.60
2022-12-25T05:15:52.577Z,69.70
2022-12-25T05:18:19.489Z,69.90
2022-12-25T05:20:55.468Z,70.10
2022-12-25T05:23:23.503Z,70.00
2022-12-25T05:25:50.241Z,70.00
2022-12-25T05:28:17.080Z,70.40
2022-12-25T05:30:43.792Z,70.50
2022-12-25T05:33:10.496Z,70.60
2022-12-25T05:35:37.924Z,70.30
2022-12-25T05:38:05.402Z,69.80
2022-12-25T05:40:32.284Z,70.00
2022-12-25T05:42:59.011Z,70.20
2022-12-25T05:45:25.777Z,70.00
2022-12-25T05:47:52.711Z,70.00
2022-12-25T05:50:19.408Z,69.70
2022-12-25T05:52:46.145Z,69.90
2022-12-25T05:55:12.870Z,69.90
2022-12-25T05:57:39.595Z,69.90
2022-12-25T06:00:06.619Z,70.10
2022-12-25T06:02:34.891Z,70.10
2022-12-25T06:05:02.139Z,70.10
2022-12-25T06:07:28.943Z,70.20
2022-12-25T06:09:55.665Z,70.00
2022-12-25T06:12:22.419Z,70.00
2022-12-25T06:14:49.142Z,70.10
2022-12-25T06:17:15.837Z,70.00
2022-12-25T06:19:42.848Z,70.00
2022-12-25T06:22:09.579Z,70.10
2022-12-25T06:24:36.402Z,70.40
2022-12-25T06:27:03.163Z,70.40
2022-12-25T06:29:29.858Z,70.50
2022-12-25T06:31:57.603Z,70.60
2022-12-25T06:34:24.522Z,71.00
2022-12-25T06:36:51.292Z,70.90
2022-12-25T06:39:18.079Z,71.60
2022-12-25T06:41:44.797Z,71.30
2022-12-25T06:44:11.509Z,71.20
2022-12-25T06:46:38.304Z,71.40
2022-12-25T06:49:05.345Z,72.00
2022-12-25T06:51:32.462Z,71.90
2022-12-25T06:53:59.832Z,72.70
2022-12-25T06:56:27.500Z,72.00
2022-12-25T06:58:55.750Z,71.10
2022-12-25T07:01:27.091Z,71.40
2022-12-25T07:03:55.964Z,72.00
2022-12-25T07:06:22.768Z,71.60
2022-12-25T07:08:50.081Z,71.50
2022-12-25T07:11:16.821Z,71.40
2022-12-25T07:13:43.583Z,71.60
2022-12-25T07:16:11.236Z,70.90
2022-12-25T07:18:38.025Z,71.10
2022-12-25T07:21:08.824Z,70.90
2022-12-25T07:23:35.851Z,70.80
2022-12-25T07:26:02.778Z,71.00
2022-12-25T07:28:30.325Z,71.30
2022-12-25T07:31:23.612Z,71.10
2022-12-25T07:33:52.625Z,72.00
2022-12-25T07:36:19.326Z,71.20
2022-12-25T07:38:48.676Z,70.80
2022-12-25T07:41:15.418Z,70.80
2022-12-25T07:43:42.504Z,70.70
2022-12-25T07:46:09.660Z,70.70
2022-12-25T07:48:36.533Z,70.00
2022-12-25T07:51:05.592Z,69.70
2022-12-25T07:53:32.372Z,69.90
2022-12-25T07:56:00.134Z,69.90
2022-12-25T07:58:27.234Z,69.80
2022-12-25T08:00:54.120Z,70.00
2022-12-25T08:03:21.197Z,69.80
2022-12-25T08:05:48.171Z,69.90
2022-12-25T08:08:14.898Z,70.00
2022-12-25T08:10:44.956Z,69.90
2022-12-25T08:13:14.616Z,69.80
2022-12-25T08:15:41.708Z,70.00
2022-12-25T08:18:08.481Z,69.70
2022-12-25T08:20:35.422Z,69.60
2022-12-25T08:23:02.273Z,69.60
2022-12-25T08:25:29.082Z,69.50
2022-12-25T08:27:55.947Z,69.60
2022-12-25T08:30:22.701Z,69.80
2022-12-25T08:32:49.439Z,69.60
2022-12-25T08:35:16.252Z,69.30
2022-12-25T08:37:43.039Z,69.50
2022-12-25T08:40:10.023Z,69.70
2022-12-25T08:42:36.961Z,69.90
2022-12-25T08:45:03.965Z,70.30
2022-12-25T08:47:30.740Z,70.30
2022-12-25T08:49:57.447Z,70.00
2022-12-25T08:52:24.282Z,70.40
2022-12-25T08:54:51.029Z,70.00
2022-12-25T08:57:17.870Z,70.30
2022-12-25T08:59:44.678Z,70.10
2022-12-25T09:02:12.483Z,69.80
2022-12-25T09:04:39.347Z,70.40
2022-12-25T09:07:06.096Z,69.90
2022-12-25T09:09:32.836Z,70.70
2022-12-25T09:11:59.556Z,70.00
2022-12-25T09:14:26.270Z,70.30
2022-12-25T09:16:52.977Z,70.00
2022-12-25T09:19:19.831Z,69.70
2022-12-25T09:21:46.526Z,69.70
2022-12-25T09:24:13.276Z,69.80
2022-12-25T09:26:40.075Z,70.00
2022-12-25T09:29:06.811Z,70.00
2022-12-25T09:31:33.713Z,70.20
2022-12-25T09:34:00.459Z,70.20
2022-12-25T09:36:27.468Z,70.50
2022-12-25T09:38:54.219Z,70.30
2022-12-25T09:41:27.213Z,70.20
2022-12-25T09:44:06.070Z,70.30
2022-12-25T09:46:40.859Z,70.80
2022-12-25T09:49:14.255Z,70.90
2022-12-25T09:51:42.572Z,70.70
2022-12-25T09:54:12.512Z,70.40
2022-12-25T09:56:39.492Z,70.60
2022-12-25T09:59:15.768Z,70.60
2022-12-25T10:01:58.163Z,70.60
2022-12-25T10:04:24.937Z,70.70
2022-12-25T10:06:51.597Z,70.70
2022-12-25T10:09:27.275Z,70.60
2022-12-25T10:12:00.233Z,70.60
2022-12-25T10:14:58.111Z,70.50
2022-12-25T10:17:43.516Z,70.60
2022-12-25T10:25:04.710Z,72.00
2022-12-25T10:27:36.435Z,66.00
2022-12-25T10:30:06.594Z,67.90
2022-12-25T10:32:33.715Z,62.80
2022-12-25T10:35:01.000Z,61.00
2022-12-25T10:37:27.796Z,60.40
2022-12-25T10:39:54.505Z,60.20
2022-12-25T10:42:24.171Z,60.20
2022-12-25T10:45:09.449Z,60.20
2022-12-25T10:47:38.601Z,59.50
2022-12-25T10:50:10.056Z,59.30
2022-12-25T10:52:46.418Z,58.70
2022-12-25T10:55:13.468Z,58.40
2022-12-25T10:57:46.453Z,58.40
2022-12-25T11:00:20.041Z,58.30
2022-12-25T11:02:47.057Z,58.40
2022-12-25T11:05:21.123Z,58.30
2022-12-25T11:07:54.293Z,58.30
2022-12-25T11:10:44.146Z,58.10
2022-12-25T11:13:40.763Z,58.10
2022-12-25T11:16:12.208Z,57.90
2022-12-25T11:18:46.883Z,57.90
2022-12-25T11:21:18.163Z,57.80
2022-12-25T11:23:49.424Z,57.80
2022-12-25T11:26:17.078Z,57.80
2022-12-25T11:28:44.958Z,57.70
2022-12-25T11:31:14.004Z,57.70
2022-12-25T11:33:52.548Z,58.10
2022-12-25T11:36:51.565Z,57.70
2022-12-25T11:39:18.265Z,57.60
2022-12-25T11:41:46.462Z,57.70
2022-12-25T11:44:23.117Z,57.80
2022-12-25T11:46:52.255Z,57.70
2022-12-25T11:49:19.991Z,57.60
2022-12-25T11:51:49.170Z,57.80
2022-12-25T11:54:25.457Z,57.50
2022-12-25T11:56:52.362Z,57.70
2022-12-25T11:59:22.754Z,57.60
2022-12-25T12:01:54.969Z,57.70
2022-12-25T12:04:29.617Z,57.50
2022-12-25T12:07:04.531Z,57.50
2022-12-25T12:09:31.273Z,57.40
2022-12-25T12:12:08.673Z,57.50
2022-12-25T12:14:57.824Z,57.50
2022-12-25T12:17:24.583Z,57.30
2022-12-25T12:19:52.690Z,57.40
2022-12-25T12:22:23.914Z,57.20
2022-12-25T12:24:54.328Z,57.90
2022-12-25T12:27:36.099Z,57.20
2022-12-25T12:30:03.301Z,57.40
2022-12-25T12:32:40.926Z,57.30
2022-12-25T12:35:10.303Z,57.40
2022-12-25T12:37:38.432Z,57.20
2022-12-25T12:40:07.486Z,57.10
2022-12-25T12:42:45.213Z,57.10
2022-12-25T12:45:26.867Z,57.20
2022-12-25T12:47:53.801Z,57.10
2022-12-25T12:50:26.312Z,57.20
2022-12-25T12:52:53.158Z,57.30
2022-12-25T12:55:28.417Z,57.30
2022-12-25T12:57:59.192Z,57.30
2022-12-25T13:00:26.988Z,57.20
2022-12-25T13:03:08.971Z,57.20
2022-12-25T13:06:01.009Z,57.20
2022-12-25T13:08:39.960Z,57.30
2022-12-25T13:11:19.646Z,57.20
2022-12-25T13:13:47.130Z,57.20
2022-12-25T13:16:21.891Z,57.10
2022-12-25T13:18:50.766Z,57.10
2022-12-25T13:21:19.544Z,57.30
2022-12-25T13:23:46.313Z,57.30
2022-12-25T13:26:14.842Z,57.30
2022-12-25T13:28:41.678Z,57.20
2022-12-25T13:31:11.240Z,57.30
2022-12-25T13:33:38.330Z,56.90
2022-12-25T13:36:09.729Z,57.20
2022-12-25T13:38:36.546Z,57.30
2022-12-25T13:41:21.682Z,57.20
2022-12-25T13:43:48.880Z,56.40
2022-12-25T13:46:15.928Z,55.20
2022-12-25T13:48:42.903Z,54.30
2022-12-25T13:51:14.287Z,54.00
2022-12-25T13:53:41.030Z,54.30
2022-12-25T13:56:12.572Z,55.30
2022-12-25T13:58:39.761Z,56.20
2022-12-25T14:01:06.733Z,56.60
2022-12-25T14:03:36.030Z,56.80
2022-12-25T14:06:04.428Z,56.90
2022-12-25T14:08:33.736Z,56.90
2022-12-25T14:11:03.715Z,57.00
2022-12-25T14:13:31.429Z,57.20
2022-12-25T14:15:58.848Z,57.30
2022-12-25T14:18:25.723Z,57.40
2022-12-25T14:21:01.729Z,57.40
2022-12-25T14:23:31.662Z,57.60
2022-12-25T14:25:58.463Z,57.70
2022-12-25T14:28:27.147Z,58.30
2022-12-25T14:30:54.550Z,57.70
2022-12-25T14:33:22.997Z,57.80
2022-12-25T14:35:50.287Z,57.80
2022-12-25T14:38:27.826Z,57.80
2022-12-25T14:41:22.668Z,57.90
2022-12-25T14:43:53.795Z,58.00
2022-12-25T14:46:28.163Z,58.10
2022-12-25T14:49:02.172Z,58.10
2022-12-25T14:51:30.019Z,58.20
2022-12-25T14:53:57.675Z,58.30
2022-12-25T14:56:25.959Z,59.20
2022-12-25T14:58:54.752Z,75.10
2022-12-25T15:01:21.682Z,74.80
2022-12-25T15:03:49.334Z,74.80
2022-12-25T15:06:20.908Z,74.30
2022-12-25T15:08:56.709Z,74.00
2022-12-25T15:11:23.539Z,58.70
2022-12-25T15:13:50.292Z,59.00
2022-12-25T15:16:19.781Z,59.30
2022-12-25T15:18:46.949Z,59.50
2022-12-25T15:21:19.727Z,59.40
2022-12-25T15:23:46.720Z,59.30
2022-12-25T15:26:13.947Z,59.30
2022-12-25T15:28:40.699Z,59.50
2022-12-25T15:31:22.190Z,59.70
2022-12-25T15:33:49.830Z,59.90
2022-12-25T15:36:16.659Z,60.30
2022-12-25T15:38:43.769Z,60.70
2022-12-25T15:41:32.546Z,60.80
2022-12-25T15:43:59.372Z,61.60
2022-12-25T15:46:26.836Z,63.80
2022-12-25T15:48:53.707Z,65.40
2022-12-25T15:51:20.520Z,67.80
2022-12-25T15:53:47.270Z,67.00
2022-12-25T15:56:14.412Z,66.40
2022-12-25T15:58:41.227Z,66.10
2022-12-25T16:01:10.461Z,66.20
2022-12-25T16:03:37.325Z,66.40
2022-12-25T16:06:04.140Z,65.50
2022-12-25T16:08:30.930Z,65.00
2022-12-25T16:10:57.887Z,65.20
2022-12-25T16:13:24.637Z,64.80
2022-12-25T16:15:51.622Z,63.90
2022-12-25T16:18:18.364Z,62.90
2022-12-25T16:20:45.216Z,61.90
2022-12-25T16:23:11.968Z,60.60
2022-12-25T16:25:38.667Z,60.20
2022-12-25T16:28:06.231Z,60.00
2022-12-25T16:30:32.979Z,60.00
2022-12-25T16:32:59.719Z,60.10
2022-12-25T16:35:26.467Z,60.00
2022-12-25T16:37:53.268Z,60.20
2022-12-25T16:40:20.325Z,60.10
2022-12-25T16:42:47.097Z,60.40
2022-12-25T16:45:13.849Z,60.20
2022-12-25T16:47:40.597Z,60.60
2022-12-25T16:50:07.597Z,60.30
2022-12-25T16:52:34.821Z,60.50
2022-12-25T16:55:02.130Z,60.60
2022-12-25T16:57:28.893Z,60.90
2022-12-25T16:59:55.602Z,61.00
2022-12-25T17:02:22.604Z,61.10
2022-12-25T17:04:49.487Z,61.20
2022-12-25T17:07:16.897Z,61.60
2022-12-25T17:09:46.724Z,61.70
2022-12-25T17:12:13.567Z,61.90
2022-12-25T17:14:40.352Z,62.30
2022-12-25T17:17:07.160Z,62.90
2022-12-25T17:19:33.988Z,63.10
2022-12-25T17:22:00.975Z,63.70
2022-12-25T17:24:28.849Z,64.80
2022-12-25T17:26:55.690Z,66.60
2022-12-25T17:29:23.075Z,72.20
2022-12-25T17:34:20.277Z,81.30
2022-12-25T17:36:47.302Z,78.60
2022-12-25T17:39:14.073Z,75.60
2022-12-25T17:41:40.808Z,76.10
2022-12-25T17:44:07.581Z,75.70
2022-12-25T17:46:34.363Z,77.00
2022-12-25T17:49:01.504Z,76.60
2022-12-25T17:53:59.687Z,84.00
2022-12-25T17:56:26.424Z,63.20
2022-12-25T17:58:54.601Z,61.90
2022-12-25T18:01:22.534Z,61.90
2022-12-25T18:03:50.202Z,60.40
2022-12-25T18:06:19.317Z,60.10
2022-12-25T18:08:46.728Z,61.50
2022-12-25T18:11:15.440Z,61.70
2022-12-25T18:13:45.133Z,60.90
2022-12-25T18:16:12.895Z,61.40
2022-12-25T18:18:40.005Z,62.40
2022-12-25T18:21:07.302Z,62.30
2022-12-25T18:23:34.672Z,63.10
2022-12-25T18:26:04.972Z,62.10
2022-12-25T18:28:32.319Z,62.40
2022-12-25T18:30:59.302Z,62.40
2022-12-25T18:33:26.175Z,61.80
2022-12-25T18:36:00.071Z,62.30
2022-12-25T18:38:27.618Z,62.50
2022-12-25T18:40:54.512Z,62.40
2022-12-25T18:43:21.266Z,62.40
2022-12-25T18:46:08.135Z,62.70
2022-12-25T18:48:35.611Z,62.60
2022-12-25T18:51:04.108Z,62.20
2022-12-25T18:53:31.096Z,61.80
2022-12-25T18:55:58.785Z,62.40
2022-12-25T18:58:26.304Z,62.20
2022-12-25T19:00:53.135Z,62.30
2022-12-25T19:03:20.149Z,62.30
2022-12-25T19:05:47.101Z,61.00
2022-12-25T19:08:14.215Z,60.30
2022-12-25T19:10:41.385Z,59.00
2022-12-25T19:13:08.646Z,59.10
2022-12-25T19:15:35.939Z,58.70
2022-12-25T19:18:02.792Z,58.70
2022-12-25T19:20:29.501Z,59.10
2022-12-25T19:22:56.279Z,59.50
2022-12-25T19:25:23.015Z,59.80
2022-12-25T19:27:49.938Z,59.70
2022-12-25T19:30:16.722Z,59.90
2022-12-25T19:32:43.407Z,59.90
2022-12-25T19:35:10.129Z,60.10
2022-12-25T19:37:36.888Z,60.20
2022-12-25T19:40:04.125Z,60.40
2022-12-25T19:42:30.993Z,60.40
2022-12-25T19:44:57.759Z,60.60
2022-12-25T19:47:24.587Z,60.70
2022-12-25T19:49:53.377Z,60.50
2022-12-25T19:52:20.695Z,60.80
2022-12-25T19:54:50.576Z,61.10
2022-12-25T19:57:17.301Z,61.20
2022-12-25T19:59:44.112Z,61.30
2022-12-25T20:02:11.375Z,61.30
2022-12-25T20:04:38.258Z,61.40
2022-12-25T20:07:04.999Z,60.60
2022-12-25T20:09:32.775Z,61.70
2022-12-25T20:11:59.491Z,61.90
2022-12-25T20:14:26.295Z,61.90
2022-12-25T20:16:53.228Z,62.00
2022-12-25T20:19:19.956Z,60.90
2022-12-25T20:21:46.671Z,62.30
2022-12-25T20:24:13.544Z,62.50
2022-12-25T20:26:40.370Z,62.10
2022-12-25T20:29:07.321Z,62.70
2022-12-25T20:31:34.961Z,62.30
2022-12-25T20:34:06.915Z,68.70
2022-12-25T20:36:37.129Z,70.60
2022-12-25T20:39:05.362Z,70.70
2022-12-25T20:41:32.318Z,70.70
2022-12-25T20:43:59.107Z,71.30
2022-12-25T20:46:27.027Z,70.90
2022-12-25T20:48:53.985Z,70.80
2022-12-25T20:51:22.036Z,68.90
2022-12-25T20:53:48.863Z,70.30
2022-12-25T20:56:17.060Z,71.00
2022-12-25T20:58:43.867Z,71.90
2022-12-25T21:01:15.821Z,71.90
2022-12-25T21:03:43.153Z,70.80
2022-12-25T21:06:10.138Z,71.80
2022-12-25T21:08:37.524Z,71.20
2022-12-25T21:11:04.666Z,70.40
2022-12-25T21:13:32.990Z,70.70
2022-12-25T21:15:59.820Z,70.50
2022-12-25T21:18:28.863Z,69.90
2022-12-25T21:20:56.750Z,69.70
2022-12-25T21:23:24.186Z,69.50
2022-12-25T21:25:51.102Z,69.00
2022-12-25T21:28:17.898Z,68.40
2022-12-25T21:30:44.713Z,67.80
2022-12-25T21:33:31.028Z,66.90
2022-12-25T21:36:05.178Z,67.40
2022-12-25T21:38:31.900Z,67.40
2022-12-25T21:41:02.385Z,67.00
2022-12-25T21:43:29.160Z,66.60
2022-12-25T21:45:55.924Z,66.30
2022-12-25T21:48:22.683Z,66.30
2022-12-25T21:51:08.342Z,66.30
2022-12-25T21:53:35.146Z,66.80
2022-12-25T21:56:02.565Z,66.00
2022-12-25T21:58:29.431Z,66.40
2022-12-25T22:00:56.210Z,66.30
2022-12-25T22:03:23.685Z,66.20
2022-12-25T22:06:09.138Z,66.20
2022-12-25T22:08:35.898Z,66.00
2022-12-25T22:11:03.241Z,66.30
2022-12-25T22:13:48.850Z,66.30
2022-12-25T22:16:34.389Z,66.10
2022-12-25T22:19:20.147Z,67.00
2022-12-25T22:21:46.948Z,66.90
2022-12-25T22:24:13.661Z,66.80
2022-12-25T22:26:40.389Z,66.90
2022-12-25T22:29:07.148Z,66.80
2022-12-25T22:31:33.926Z,66.70
2022-12-25T22:34:00.721Z,67.60
2022-12-25T22:36:27.516Z,67.60
2022-12-25T22:38:54.297Z,67.90
2022-12-25T22:41:21.058Z,67.30
2022-12-25T22:46:34.654Z,67.10
2022-12-25T22:49:01.412Z,67.40
2022-12-25T22:51:28.302Z,67.20
2022-12-25T22:53:58.799Z,67.40
2022-12-25T22:56:30.137Z,67.40
2022-12-25T22:58:57.059Z,67.60
2022-12-25T23:01:33.430Z,67.60
2022-12-25T23:04:00.412Z,67.90
2022-12-25T23:06:27.212Z,68.00
2022-12-25T23:08:53.937Z,68.00
2022-12-25T23:11:21.030Z,56.40
2022-12-25T23:14:06.446Z,57.80
2022-12-25T23:16:33.259Z,57.20
2022-12-25T23:19:18.696Z,57.50
2022-12-25T23:22:03.966Z,57.40
2022-12-25T23:24:49.353Z,57.40
2022-12-25T23:27:16.106Z,57.10
2022-12-25T23:29:42.859Z,57.40
2022-12-25T23:32:11.121Z,57.60
2022-12-25T23:34:39.159Z,57.40
2022-12-25T23:37:06.388Z,57.00
2022-12-25T23:39:33.287Z,56.90
2022-12-25T23:42:00.294Z,56.90
2022-12-25T23:44:27.514Z,57.00
2022-12-25T23:46:54.631Z,56.90
2022-12-25T23:49:24.683Z,56.80
2022-12-25T23:51:51.823Z,56.70
2022-12-25T23:54:19.998Z,56.80
2022-12-25T23:56:46.751Z,56.70
2022-12-25T23:59:14.145Z,56.80
